Time;durP1;ratioP1;P1;durP2;ratioP2;P2;SDS_P1;SDS_P2;PMS_P1;PMS_P2;Temp;Humidity;BMP_temperature;BMP_pressure;BME280_temperature;BME280_humidity;BME280_pressure;Samples;Min_cycle;Max_cycle;Signal;HPM_P1;HPM_P2
2022/12/17 13:06:47;;;;;;;89.95;29.88;;;-0.70;99.90;;;;;;5012294;28;20493;-67
2022/12/17 13:09:22;;;;;;;92.35;29.55;;;-0.80;99.90;;;;;;5012044;28;20030;-67
2022/12/17 13:12:09;;;;;;;94.25;30.73;;;-1.10;99.90;;;;;;4990750;28;20057;-68
2022/12/17 13:14:47;;;;;;;94.95;30.00;;;-0.90;99.90;;;;;;5001344;28;20165;-69
2022/12/17 13:17:15;;;;;;;93.95;29.25;;;-1.10;99.90;;;;;;5009273;28;20455;-67
2022/12/17 13:19:57;;;;;;;91.00;30.38;;;-1.00;99.90;;;;;;5005840;28;20031;-67
2022/12/17 13:22:22;;;;;;;98.57;31.02;;;-0.80;99.90;;;;;;4991044;28;20045;-68
2022/12/17 13:25:16;;;;;;;103.03;33.95;;;-0.80;99.90;;;;;;4990093;28;20046;-67
2022/12/17 13:27:42;;;;;;;93.38;30.02;;;-0.90;99.90;;;;;;5008094;28;20053;-67
2022/12/17 13:30:16;;;;;;;107.05;34.35;;;-0.70;99.90;;;;;;5014179;28;20057;-67
2022/12/17 13:32:58;;;;;;;108.28;34.33;;;-0.60;99.90;;;;;;5028357;28;20033;-67
2022/12/17 13:35:48;;;;;;;88.43;30.20;;;-0.60;99.90;;;;;;4999201;28;20469;-69
2022/12/17 13:38:22;;;;;;;90.82;31.50;;;-0.70;99.90;;;;;;5009786;28;20034;-67
2022/12/17 13:41:03;;;;;;;99.90;32.58;;;-0.70;99.90;;;;;;5008715;28;20029;-68
2022/12/17 13:43:41;;;;;;;104.45;31.80;;;-0.60;99.90;;;;;;5017324;28;20037;-68
2022/12/17 13:46:16;;;;;;;103.00;32.90;;;-0.50;99.90;;;;;;4992561;28;20486;-67
2022/12/17 13:48:42;;;;;;;89.75;31.48;;;-0.30;99.90;;;;;;5015291;28;20022;-68
2022/12/17 13:51:19;;;;;;;92.32;32.08;;;-0.30;99.90;;;;;;5016117;28;20045;-67
2022/12/17 13:53:58;;;;;;;95.38;30.50;;;-0.40;99.90;;;;;;4999899;28;20657;-67
2022/12/17 13:56:32;;;;;;;86.93;29.45;;;-0.10;99.90;;;;;;4999431;28;20042;-68
2022/12/17 13:59:01;;;;;;;90.57;29.85;;;0.10;99.90;;;;;;5008058;28;20886;-68
2022/12/17 14:01:27;;;;;;;85.85;31.30;;;0.50;99.90;;;;;;5007571;28;20049;-68
2022/12/17 14:03:58;;;;;;;95.05;30.60;;;0.50;99.90;;;;;;5007352;28;20083;-68
2022/12/17 14:06:25;;;;;;;;;;;0.60;99.90;;;;;;5005758;28;20042;-67
2022/12/17 14:08:53;;;;;;;91.15;28.98;;;0.30;99.90;;;;;;4989402;28;19917;-67
2022/12/17 14:14:12;;;;;;;87.68;30.05;;;0.30;99.90;;;;;;5006285;28;20450;-68
2022/12/17 14:16:39;;;;;;;96.55;32.05;;;0.00;99.90;;;;;;5009409;28;20053;-71
2022/12/17 14:19:08;;;;;;;90.28;30.77;;;0.20;99.90;;;;;;5001527;28;20110;-66
2022/12/17 14:21:36;;;;;;;98.50;32.28;;;0.20;99.90;;;;;;5006626;28;20496;-68
2022/12/17 14:24:02;;;;;;;96.13;31.83;;;0.10;99.90;;;;;;5028645;28;20058;-67
2022/12/17 14:26:28;;;;;;;95.47;32.88;;;0.20;99.90;;;;;;5029742;28;20087;-67
2022/12/17 14:28:54;;;;;;;99.57;34.10;;;0.30;99.90;;;;;;5028946;28;20025;-64
2022/12/17 14:31:21;;;;;;;100.93;33.97;;;0.20;99.90;;;;;;5029731;28;20109;-66
2022/12/17 14:33:59;;;;;;;104.13;33.75;;;0.20;99.90;;;;;;5028818;28;20025;-67
2022/12/17 14:36:24;;;;;;;110.70;33.95;;;0.10;99.90;;;;;;5025102;28;20187;-66
2022/12/17 14:39:00;;;;;;;106.05;35.38;;;0.10;99.90;;;;;;5008810;28;20109;-64
2022/12/17 14:44:21;;;;;;;105.38;34.33;;;0.10;99.90;;;;;;5009833;28;20108;-66
2022/12/17 14:46:47;;;;;;;104.43;34.67;;;-0.30;99.90;;;;;;5008520;28;20471;-66
2022/12/17 14:49:20;;;;;;;102.00;34.55;;;-0.40;99.90;;;;;;5009290;28;20037;-65
2022/12/17 14:51:47;;;;;;;101.63;33.80;;;-0.80;99.90;;;;;;5015627;28;20497;-66
2022/12/17 14:54:19;;;;;;;93.53;31.98;;;-1.00;99.90;;;;;;5029134;28;20083;-65
2022/12/17 14:56:47;;;;;;;120.68;39.95;;;-1.30;99.90;;;;;;5028510;28;20025;-66
2022/12/17 14:59:24;;;;;;;120.20;41.00;;;-1.70;99.90;;;;;;5010601;28;20026;-66
2022/12/17 15:01:51;;;;;;;113.03;37.08;;;-1.90;99.90;;;;;;4998154;28;20038;-67
2022/12/17 15:04:17;;;;;;;94.72;29.42;;;-1.90;99.90;;;;;;4999349;28;20030;-65
2022/12/17 15:06:43;;;;;;;89.78;30.40;;;-1.90;99.90;;;;;;5007355;28;20108;-66
2022/12/17 15:09:11;;;;;;;115.10;38.08;;;-2.10;99.90;;;;;;4998512;28;20030;-65
2022/12/17 15:11:36;;;;;;;143.38;46.58;;;-2.40;99.90;;;;;;4988065;28;20022;-67
2022/12/17 15:14:02;;;;;;;146.70;46.40;;;-2.60;99.90;;;;;;5001512;28;20030;-66
2022/12/17 15:16:28;;;;;;;135.50;43.00;;;-3.00;99.90;;;;;;4989034;28;20366;-65
2022/12/17 15:18:54;;;;;;;131.30;39.90;;;-3.30;99.90;;;;;;4992949;28;20036;-66
2022/12/17 15:21:19;;;;;;;121.28;40.67;;;-3.40;99.90;;;;;;5005115;28;20033;-65
2022/12/17 15:23:45;;;;;;;132.10;41.28;;;-3.30;99.90;;;;;;5001835;28;20068;-66
2022/12/17 15:26:13;;;;;;;128.70;41.42;;;-3.40;99.90;;;;;;4989554;28;20058;-66
2022/12/17 15:28:42;;;;;;;145.15;44.95;;;-3.60;99.90;;;;;;5004950;28;20374;-71
2022/12/17 15:31:12;;;;;;;136.98;44.65;;;-3.80;99.90;;;;;;4999361;28;20476;-67
2022/12/17 15:33:39;;;;;;;155.05;47.55;;;-3.90;99.90;;;;;;4994468;28;20045;-67
2022/12/17 15:36:05;;;;;;;214.80;64.00;;;-4.10;99.90;;;;;;5004760;28;20057;-67
2022/12/17 15:38:30;;;;;;;169.48;52.58;;;-4.20;99.90;;;;;;5007196;28;20030;-68
2022/12/17 15:40:59;;;;;;;171.93;56.13;;;-4.30;99.90;;;;;;5005217;28;20029;-65
2022/12/17 15:43:25;;;;;;;162.07;51.13;;;-4.30;99.90;;;;;;5007220;28;20107;-69
2022/12/17 15:45:51;;;;;;;163.82;51.80;;;-4.40;99.90;;;;;;5005453;28;20037;-68
2022/12/17 15:48:19;;;;;;;152.02;46.13;;;-4.50;99.90;;;;;;5010977;28;20061;-66
2022/12/17 15:50:45;;;;;;;152.38;45.80;;;-4.60;99.90;;;;;;4987709;28;20039;-69
2022/12/17 15:53:12;;;;;;;153.55;51.95;;;-4.60;99.90;;;;;;5004786;28;20114;-65
2022/12/17 15:55:38;;;;;;;137.27;43.78;;;-4.80;99.90;;;;;;5008297;28;20391;-66
2022/12/17 15:58:04;;;;;;;150.20;48.00;;;-4.90;99.90;;;;;;5004875;28;20014;-66
2022/12/17 16:00:30;;;;;;;117.32;40.45;;;-4.80;99.90;;;;;;5002129;28;20041;-63
2022/12/17 16:02:56;;;;;;;126.65;39.13;;;-5.00;99.90;;;;;;4989472;28;20391;-67
2022/12/17 16:05:22;;;;;;;127.00;40.70;;;-5.10;99.90;;;;;;5008137;28;20088;-66
2022/12/17 16:07:49;;;;;;;137.85;43.17;;;-5.10;99.90;;;;;;5005208;28;20121;-64
2022/12/17 16:10:15;;;;;;;136.57;42.00;;;-5.20;99.90;;;;;;5004784;28;20029;-68
2022/12/17 16:12:41;;;;;;;130.30;41.35;;;-5.30;99.90;;;;;;5015627;28;20441;-66
2022/12/17 16:15:07;;;;;;;128.50;39.95;;;-5.40;99.90;;;;;;5001859;28;20084;-66
2022/12/17 16:17:33;;;;;;;139.45;43.75;;;-5.50;99.90;;;;;;5005235;28;20034;-67
2022/12/17 16:19:59;;;;;;;172.00;53.03;;;-5.50;99.90;;;;;;5002610;28;20060;-69
2022/12/17 16:22:26;;;;;;;154.35;47.17;;;-5.60;99.90;;;;;;5005745;28;20057;-69
2022/12/17 16:24:51;;;;;;;134.27;42.47;;;-5.60;99.90;;;;;;4991195;28;20094;-69
2022/12/17 16:27:17;;;;;;;133.23;40.20;;;-5.70;99.90;;;;;;5008045;28;20541;-71
2022/12/17 16:29:45;;;;;;;164.35;55.00;;;-5.70;99.90;;;;;;5003295;28;20061;-69
2022/12/17 16:32:11;;;;;;;123.30;40.47;;;-5.70;99.90;;;;;;5012527;28;20037;-67
2022/12/17 16:34:36;;;;;;;126.45;40.00;;;-5.60;99.90;;;;;;5031474;28;20371;-66
2022/12/17 16:37:02;;;;;;;118.82;38.03;;;-5.60;99.90;;;;;;5031225;28;20788;-68
2022/12/17 16:39:28;;;;;;;134.02;39.58;;;-5.70;99.90;;;;;;5031647;28;20092;-69
2022/12/17 16:41:54;;;;;;;135.98;40.33;;;-5.80;99.90;;;;;;5031034;28;20033;-67
2022/12/17 16:44:19;;;;;;;141.35;44.25;;;-5.80;99.90;;;;;;5030134;28;20526;-69
2022/12/17 16:46:45;;;;;;;142.07;46.55;;;-6.00;99.90;;;;;;5028712;28;20110;-70
2022/12/17 16:49:15;;;;;;;151.85;44.95;;;-6.10;99.90;;;;;;5029664;28;20041;-69
2022/12/17 16:51:43;;;;;;;153.73;43.58;;;-6.20;99.90;;;;;;5031579;28;20028;-69
2022/12/17 16:54:16;;;;;;;140.15;41.35;;;-6.40;99.90;;;;;;5022522;28;20041;-69
2022/12/17 16:56:42;;;;;;;173.18;47.47;;;-6.50;99.90;;;;;;5011514;28;20034;-67
2022/12/17 16:59:09;;;;;;;163.48;46.50;;;-6.40;99.90;;;;;;5010707;28;20124;-68
2022/12/17 17:01:36;;;;;;;164.40;46.28;;;-6.50;99.90;;;;;;5011531;28;20045;-67
2022/12/17 17:04:03;;;;;;;141.32;42.90;;;-6.50;99.90;;;;;;5009429;28;20033;-68
2022/12/17 17:06:29;;;;;;;128.85;40.30;;;-6.50;99.90;;;;;;5011288;28;20479;-68
2022/12/17 17:08:55;;;;;;;144.23;41.53;;;-6.60;99.90;;;;;;5010647;28;20032;-66
2022/12/17 17:11:23;;;;;;;130.02;40.03;;;-6.60;99.90;;;;;;5011320;28;20387;-68
2022/12/17 17:13:50;;;;;;;124.47;36.33;;;-6.70;99.90;;;;;;5010539;28;20034;-71
2022/12/17 17:16:17;;;;;;;128.60;35.70;;;-6.90;99.90;;;;;;5011274;28;20037;-68
2022/12/17 17:18:43;;;;;;;102.75;29.85;;;-7.10;99.90;;;;;;5025640;28;20071;-68
2022/12/17 17:21:14;;;;;;;111.03;31.42;;;-7.10;99.90;;;;;;5030299;28;20033;-68
2022/12/17 17:23:41;;;;;;;110.88;32.00;;;-7.20;99.90;;;;;;5030316;28;20053;-68
2022/12/17 17:26:08;;;;;;;115.65;31.50;;;-7.30;99.90;;;;;;5029778;28;20049;-69
2022/12/17 17:28:34;;;;;;;123.97;34.90;;;-7.40;99.90;;;;;;5017663;28;20061;-68
2022/12/17 17:31:03;;;;;;;110.07;33.33;;;-7.50;99.90;;;;;;5010340;28;20446;-68
2022/12/17 17:33:33;;;;;;;122.25;32.33;;;-7.50;99.90;;;;;;5025917;28;20037;-67
2022/12/17 17:36:07;;;;;;;119.75;37.05;;;-7.40;99.90;;;;;;5029498;28;20041;-68
2022/12/17 17:38:34;;;;;;;127.88;36.35;;;-7.30;99.90;;;;;;5029445;28;20041;-68
2022/12/17 17:41:00;;;;;;;122.57;37.00;;;-7.30;99.90;;;;;;5028518;28;20087;-68
2022/12/17 17:43:26;;;;;;;112.45;35.45;;;-7.50;99.90;;;;;;5018804;28;20029;-67
2022/12/17 17:45:52;;;;;;;124.03;36.78;;;-7.50;99.90;;;;;;5010000;28;20034;-69
2022/12/17 17:48:18;;;;;;;123.15;37.05;;;-7.50;99.90;;;;;;5010692;28;20040;-69
2022/12/17 17:50:55;;;;;;;130.50;38.53;;;-7.50;99.90;;;;;;5009541;28;20030;-68
2022/12/17 17:53:20;;;;;;;129.27;37.72;;;-7.60;99.90;;;;;;5010356;28;20030;-68
2022/12/17 17:55:46;;;;;;;142.73;43.05;;;-7.60;99.90;;;;;;5009096;28;20390;-67
2022/12/17 17:58:15;;;;;;;153.23;44.13;;;-7.70;99.90;;;;;;5009570;28;20033;-68
2022/12/17 18:00:40;;;;;;;138.68;43.67;;;-7.70;99.90;;;;;;5009094;28;20501;-68
2022/12/17 18:03:06;;;;;;;137.95;40.53;;;-7.70;99.90;;;;;;5009120;28;20041;-67
2022/12/17 18:05:36;;;;;;;133.60;41.00;;;-7.70;99.90;;;;;;5009162;28;20103;-67
2022/12/17 18:08:02;;;;;;;141.65;40.28;;;-7.70;99.90;;;;;;5009424;28;20673;-68
2022/12/17 18:10:28;;;;;;;126.82;38.85;;;-7.70;99.90;;;;;;5010436;28;20034;-67
2022/12/17 18:15:38;;;;;;;133.40;40.22;;;-7.90;99.90;;;;;;5009904;28;20040;-68
2022/12/17 18:18:03;;;;;;;138.48;41.70;;;-8.00;99.90;;;;;;5009374;28;20034;-68
2022/12/17 18:20:29;;;;;;;128.55;40.55;;;-8.00;99.90;;;;;;5007985;28;20609;-67
2022/12/17 18:22:55;;;;;;;122.28;37.95;;;-8.10;99.90;;;;;;5008899;28;20817;-67
2022/12/17 18:25:20;;;;;;;139.02;43.90;;;-8.00;99.90;;;;;;5010020;28;20088;-67
2022/12/17 18:27:46;;;;;;;131.10;42.72;;;-8.20;99.90;;;;;;5008438;28;20038;-67
2022/12/17 18:30:13;;;;;;;130.35;42.05;;;-8.20;99.90;;;;;;5009189;28;20022;-68
2022/12/17 18:32:38;;;;;;;111.90;34.35;;;-8.30;99.90;;;;;;5010015;28;20022;-67
2022/12/17 18:35:04;;;;;;;104.40;31.48;;;-8.30;99.90;;;;;;5017796;28;20036;-68
2022/12/17 18:37:30;;;;;;;107.40;32.63;;;-8.20;99.90;;;;;;5029271;28;20041;-66
2022/12/17 18:39:55;;;;;;;99.25;29.65;;;-8.20;99.90;;;;;;5028677;28;20117;-68
2022/12/17 18:45:06;;;;;;;150.10;41.47;;;-8.20;99.90;;;;;;5028457;28;20600;-68
2022/12/17 18:47:31;;;;;;;149.75;43.58;;;-8.30;99.90;;;;;;5028740;28;20040;-67
2022/12/17 18:49:57;;;;;;;145.70;41.60;;;-8.30;99.90;;;;;;5013677;28;20030;-68
2022/12/17 18:52:23;;;;;;;129.65;38.58;;;-8.50;99.90;;;;;;5009251;28;20030;-67
2022/12/17 18:54:49;;;;;;;107.97;31.52;;;-8.50;99.90;;;;;;5009454;28;20046;-68
2022/12/17 18:57:14;;;;;;;124.00;35.15;;;-8.50;99.90;;;;;;5008429;28;20063;-68
2022/12/17 18:59:40;;;;;;;111.10;33.38;;;-8.50;99.90;;;;;;5009016;28;20049;-68
2022/12/17 19:02:10;;;;;;;142.93;41.00;;;-8.50;99.90;;;;;;5007615;28;20026;-66
2022/12/17 19:04:35;;;;;;;150.25;39.00;;;-8.50;99.90;;;;;;5019801;28;20037;-68
2022/12/17 19:07:01;;;;;;;137.73;38.40;;;-8.60;99.90;;;;;;5028332;28;20029;-67
2022/12/17 19:09:35;;;;;;;155.45;44.63;;;-8.50;99.90;;;;;;5028783;28;20025;-67
2022/12/17 19:12:02;;;;;;;122.95;37.97;;;-8.60;99.90;;;;;;5028195;28;20116;-68
2022/12/17 19:14:28;;;;;;;111.30;33.63;;;-8.60;99.90;;;;;;5027422;28;20037;-68
2022/12/17 19:16:56;;;;;;;106.32;32.70;;;-8.60;99.90;;;;;;5028610;28;20040;-69
2022/12/17 19:19:22;;;;;;;102.30;33.45;;;-8.60;99.90;;;;;;5014339;28;20030;-68
2022/12/17 19:21:50;;;;;;;108.28;31.80;;;-8.60;99.90;;;;;;5009104;28;20455;-68
2022/12/17 19:24:18;;;;;;;111.22;32.75;;;-8.50;99.90;;;;;;5007827;28;20073;-68
2022/12/17 19:26:44;;;;;;;106.93;33.47;;;-8.40;99.90;;;;;;5008821;28;20531;-67
2022/12/17 19:29:12;;;;;;;96.38;30.48;;;-8.40;99.90;;;;;;5007802;28;20517;-68
2022/12/17 19:31:38;;;;;;;97.45;31.20;;;-8.40;99.90;;;;;;5009128;28;20463;-67
2022/12/17 19:34:06;;;;;;;100.70;30.67;;;-8.40;99.90;;;;;;5018729;28;20030;-68
2022/12/17 19:36:34;;;;;;;97.68;29.98;;;-8.40;99.90;;;;;;5027266;28;20060;-69
2022/12/17 19:39:02;;;;;;;101.18;30.38;;;-8.50;99.90;;;;;;5027693;28;20034;-68
2022/12/17 19:41:30;;;;;;;125.97;35.50;;;-8.50;99.90;;;;;;5028420;28;20044;-67
2022/12/17 19:44:02;;;;;;;138.63;40.38;;;-8.50;99.90;;;;;;5026868;28;20099;-70
2022/12/17 19:46:29;;;;;;;104.45;33.58;;;-8.50;99.90;;;;;;5028713;28;20033;-68
2022/12/17 19:48:56;;;;;;;136.20;40.58;;;-8.70;99.90;;;;;;5013011;28;20045;-70
2022/12/17 19:51:23;;;;;;;137.65;42.10;;;-8.70;99.90;;;;;;5008420;28;20149;-68
2022/12/17 19:53:49;;;;;;;118.13;35.67;;;-8.80;99.90;;;;;;5006985;28;20055;-67
2022/12/17 19:56:19;;;;;;;129.68;39.13;;;-8.90;99.90;;;;;;5007955;28;20042;-67
2022/12/17 19:58:46;;;;;;;;;;;-8.80;99.90;;;;;;5009457;28;20038;-68
2022/12/17 20:01:15;;;;;;;136.32;37.47;;;-8.90;99.90;;;;;;5011985;28;19945;-68
2022/12/17 20:03:42;;;;;;;137.88;38.53;;;-8.80;99.90;;;;;;5011603;28;20379;-67
2022/12/17 20:06:09;;;;;;;123.30;34.55;;;-9.00;99.90;;;;;;5011620;28;20045;-68
2022/12/17 20:08:38;;;;;;;115.80;34.20;;;-9.20;99.90;;;;;;5012568;28;20026;-67
2022/12/17 20:11:31;;;;;;;119.97;35.47;;;-9.30;99.90;;;;;;5011461;28;20058;-67
2022/12/17 20:13:59;;;;;;;114.28;32.50;;;-9.20;99.90;;;;;;5012456;28;20033;-67
2022/12/17 20:16:25;;;;;;;116.93;34.42;;;-9.20;99.90;;;;;;5012265;28;20076;-67
2022/12/17 20:18:51;;;;;;;115.00;33.67;;;-9.10;99.90;;;;;;5011403;28;20038;-67
2022/12/17 20:21:18;;;;;;;105.97;33.22;;;-9.10;99.90;;;;;;5011730;28;20475;-67
2022/12/17 20:23:48;;;;;;;108.78;33.85;;;-9.10;99.90;;;;;;5011699;28;20156;-67
2022/12/17 20:26:15;;;;;;;120.65;34.78;;;-9.10;99.90;;;;;;5011086;28;20042;-67
2022/12/17 20:28:40;;;;;;;122.75;34.85;;;-9.20;99.90;;;;;;5012211;28;20029;-67
2022/12/17 20:31:06;;;;;;;116.03;35.60;;;-9.10;99.90;;;;;;5011559;28;20474;-67
2022/12/17 20:33:32;;;;;;;155.68;39.83;;;-9.10;99.90;;;;;;5027053;28;20636;-67
2022/12/17 20:36:11;;;;;;;166.35;42.35;;;-9.10;99.90;;;;;;5031504;28;20048;-69
2022/12/17 20:38:37;;;;;;;144.63;38.78;;;-9.10;99.90;;;;;;5030545;28;20382;-67
2022/12/17 20:41:11;;;;;;;137.05;40.80;;;-9.10;99.90;;;;;;5028507;28;20026;-67
2022/12/17 20:43:38;;;;;;;146.13;41.15;;;-9.10;99.90;;;;;;5031823;28;20033;-67
2022/12/17 20:46:04;;;;;;;121.57;36.88;;;-9.10;99.90;;;;;;5030965;28;20033;-67
2022/12/17 20:48:29;;;;;;;124.38;38.10;;;-9.10;99.90;;;;;;5031673;28;20026;-67
2022/12/17 20:50:55;;;;;;;130.18;36.85;;;-9.30;99.90;;;;;;5029947;28;20025;-67
2022/12/17 20:53:21;;;;;;;125.20;34.90;;;-9.40;99.90;;;;;;5030831;28;20029;-67
2022/12/17 20:55:46;;;;;;;116.32;36.17;;;-9.50;99.90;;;;;;5012775;28;20038;-67
2022/12/17 20:58:14;;;;;;;131.70;38.00;;;-9.40;99.90;;;;;;5010933;28;20152;-67
2022/12/17 21:00:40;;;;;;;116.47;35.08;;;-9.50;99.90;;;;;;5011629;28;20083;-67
2022/12/17 21:03:05;;;;;;;121.15;35.67;;;-9.50;99.90;;;;;;5010818;28;20124;-67
2022/12/17 21:05:34;;;;;;;129.00;40.38;;;-9.40;99.90;;;;;;5010347;28;20033;-67
2022/12/17 21:08:00;;;;;;;130.50;38.83;;;-9.50;99.90;;;;;;5009907;28;20030;-69
2022/12/17 21:10:25;;;;;;;124.13;39.42;;;-9.50;99.90;;;;;;5009958;28;20386;-66
2022/12/17 21:15:35;;;;;;;123.18;35.25;;;-9.60;99.90;;;;;;5011255;28;20041;-67
2022/12/17 21:18:01;;;;;;;120.75;38.20;;;-9.60;99.90;;;;;;5010953;28;20030;-70
2022/12/17 21:20:27;;;;;;;124.28;36.72;;;-9.60;99.90;;;;;;5022274;28;20637;-66
2022/12/17 21:22:52;;;;;;;126.95;36.42;;;-9.60;99.90;;;;;;5030852;28;20049;-68
2022/12/17 21:25:18;;;;;;;101.13;30.85;;;-9.60;99.90;;;;;;5016807;28;20042;-67
2022/12/17 21:27:44;;;;;;;112.93;33.85;;;-9.60;99.90;;;;;;5010741;28;20034;-67
2022/12/17 21:30:10;;;;;;;111.13;34.75;;;-9.50;99.90;;;;;;5009072;28;20029;-67
2022/12/17 21:32:35;;;;;;;107.47;33.58;;;-9.50;99.90;;;;;;5011132;28;20029;-67
2022/12/17 21:35:01;;;;;;;113.00;33.80;;;-9.50;99.90;;;;;;5011552;28;20475;-69
2022/12/17 21:37:26;;;;;;;134.35;36.70;;;-9.40;99.90;;;;;;5010215;28;20030;-67
2022/12/17 21:39:52;;;;;;;163.23;42.83;;;-9.30;99.90;;;;;;5010941;28;20104;-67
2022/12/17 21:45:02;;;;;;;111.22;30.17;;;-9.60;99.90;;;;;;5009539;28;20060;-70
2022/12/17 21:47:27;;;;;;;95.03;28.40;;;-9.60;99.90;;;;;;5010162;28;20474;-67
2022/12/17 21:49:53;;;;;;;93.43;27.92;;;-9.60;99.90;;;;;;5009705;28;20081;-67
2022/12/17 21:52:19;;;;;;;101.57;28.92;;;-9.60;99.90;;;;;;5010228;28;20048;-67
2022/12/17 21:54:45;;;;;;;98.05;29.08;;;-9.60;99.90;;;;;;5009166;28;20034;-67
2022/12/17 21:57:11;;;;;;;113.28;33.42;;;-9.60;99.90;;;;;;5010012;28;20041;-67
2022/12/17 21:59:39;;;;;;;248.98;59.80;;;-9.70;99.90;;;;;;5010624;28;20022;-65
2022/12/17 22:02:05;;;;;;;153.45;42.05;;;-9.90;99.90;;;;;;5019283;28;20030;-70
2022/12/17 22:04:30;;;;;;;137.60;38.22;;;-10.00;99.90;;;;;;5015176;28;20033;-68
2022/12/17 22:06:56;;;;;;;106.30;33.70;;;-10.00;99.90;;;;;;5010531;28;20424;-68
2022/12/17 22:09:22;;;;;;;127.78;36.75;;;-10.00;99.90;;;;;;5009364;28;20033;-67
2022/12/17 22:11:47;;;;;;;129.27;35.22;;;-10.30;99.90;;;;;;5010854;28;20044;-67
2022/12/17 22:14:13;;;;;;;125.97;33.28;;;-10.40;99.90;;;;;;5029544;28;20108;-65
2022/12/17 22:16:45;;;;;;;143.35;38.60;;;-10.30;99.90;;;;;;5029951;28;20037;-67
2022/12/17 22:19:18;;;;;;;103.53;30.65;;;-10.20;99.90;;;;;;5029210;28;20033;-67
2022/12/17 22:21:44;;;;;;;112.07;31.63;;;-10.20;99.90;;;;;;5027711;28;20034;-65
2022/12/17 22:24:15;;;;;;;104.60;30.38;;;-10.20;99.90;;;;;;5009549;28;20529;-67
2022/12/17 22:26:41;;;;;;;95.65;28.80;;;-10.20;99.90;;;;;;5000246;28;20026;-67
2022/12/17 22:29:07;;;;;;;138.38;37.10;;;-10.10;99.90;;;;;;4992368;28;20026;-68
2022/12/17 22:34:17;;;;;;;134.20;35.67;;;-9.90;99.90;;;;;;5006212;28;20414;-68
2022/12/17 22:36:42;;;;;;;149.70;38.45;;;-10.00;99.90;;;;;;5008239;28;20053;-67
2022/12/17 22:39:12;;;;;;;123.40;34.67;;;-9.90;99.90;;;;;;5009145;28;20817;-67
2022/12/17 22:44:23;;;;;;;121.45;34.25;;;-10.10;99.90;;;;;;4995335;28;20053;-66
2022/12/17 22:46:49;;;;;;;118.57;35.25;;;-10.10;99.90;;;;;;4990992;28;20464;-67
2022/12/17 22:49:15;;;;;;;111.72;31.85;;;-10.10;99.90;;;;;;5006613;28;20033;-66
2022/12/17 22:51:41;;;;;;;107.43;31.38;;;-10.20;99.90;;;;;;5018256;28;20033;-67
2022/12/17 22:54:07;;;;;;;134.07;36.28;;;-10.20;99.90;;;;;;5017674;28;20041;-69
2022/12/17 22:56:34;;;;;;;113.15;32.33;;;-10.20;99.90;;;;;;5008657;28;20136;-66
2022/12/17 22:59:01;;;;;;;113.38;33.88;;;-10.30;99.90;;;;;;5007961;28;20036;-68
2022/12/17 23:01:27;;;;;;;119.82;34.30;;;-10.40;99.90;;;;;;5006966;28;20022;-66
2022/12/17 23:03:54;;;;;;;93.63;28.88;;;-10.40;99.90;;;;;;5010664;28;20037;-66
2022/12/17 23:06:20;;;;;;;91.55;27.45;;;-10.40;99.90;;;;;;5005630;28;20045;-68
2022/12/17 23:08:45;;;;;;;93.28;27.50;;;-10.30;99.90;;;;;;5001759;28;20390;-67
2022/12/17 23:11:17;;;;;;;103.70;28.42;;;-10.30;99.90;;;;;;5002422;28;20483;-67
2022/12/17 23:13:43;;;;;;;101.50;28.83;;;-10.30;99.90;;;;;;5000105;28;20033;-65
2022/12/17 23:16:12;;;;;;;100.38;27.60;;;-10.30;99.90;;;;;;4996340;28;20076;-68
2022/12/17 23:18:38;;;;;;;110.78;31.65;;;-10.20;99.90;;;;;;5001590;28;20034;-67
2022/12/17 23:21:19;;;;;;;103.80;30.38;;;-10.20;99.90;;;;;;5008927;28;20040;-68
2022/12/17 23:23:45;;;;;;;92.32;28.70;;;-10.40;99.90;;;;;;5013288;28;20124;-65
2022/12/17 23:26:13;;;;;;;114.57;32.65;;;-10.40;99.90;;;;;;5005818;28;20049;-69
2022/12/17 23:28:39;;;;;;;109.25;29.52;;;-10.50;99.90;;;;;;5007688;28;20018;-67
2022/12/17 23:31:08;;;;;;;90.90;27.83;;;-10.70;99.90;;;;;;5004821;28;20053;-69
2022/12/17 23:33:34;;;;;;;110.40;29.13;;;-10.70;99.90;;;;;;5034667;28;20034;-67
2022/12/17 23:36:09;;;;;;;107.18;28.90;;;-10.60;99.90;;;;;;5007874;28;20033;-67
2022/12/17 23:38:35;;;;;;;98.28;29.30;;;-10.50;99.90;;;;;;5005336;28;20034;-66
2022/12/17 23:41:22;;;;;;;104.35;27.95;;;-10.50;99.90;;;;;;5006785;28;20113;-67
2022/12/17 23:43:48;;;;;;;118.30;31.75;;;-10.30;99.90;;;;;;4995951;28;20073;-67
2022/12/17 23:46:15;;;;;;;100.80;27.63;;;-10.40;99.90;;;;;;5005651;28;20033;-68
2022/12/17 23:48:42;;;;;;;98.30;27.45;;;-10.60;99.90;;;;;;4989191;28;20030;-68
2022/12/17 23:51:09;;;;;;;92.63;29.27;;;-10.60;99.90;;;;;;4994982;28;20034;-68
2022/12/17 23:53:36;;;;;;;112.82;31.40;;;-10.50;99.90;;;;;;5007766;28;20038;-67
2022/12/17 23:56:15;;;;;;;125.47;33.40;;;-10.40;99.90;;;;;;5012197;28;20478;-67
2022/12/17 23:58:43;;;;;;;109.30;29.30;;;-10.30;99.90;;;;;;4990725;28;20030;-67
